Time;durP1;ratioP1;P1;durP2;ratioP2;P2;SDS_P1;SDS_P2;PMS_P1;PMS_P2;Temp;Humidity;BMP_temperature;BMP_pressure;BME280_temperature;BME280_humidity;BME280_pressure;Samples;Min_cycle;Max_cycle;Signal;HPM_P1;HPM_P2
2022/11/10 00:00:50;;;;;;;;;12.00;9.00;;;;;14.71;61.21;101518.75;2097439;28;46626;-61
2022/11/10 00:01:50;;;;;;;;;9.67;9.67;;;;;14.69;61.03;101515.25;2098469;28;46644;-61
2022/11/10 00:02:51;;;;;;;;;12.00;10.33;;;;;14.69;61.29;101517.91;2098023;28;46492;-61
2022/11/10 00:03:51;;;;;;;;;12.00;12.00;;;;;14.68;61.15;101521.50;2098074;28;47070;-61
2022/11/10 00:04:51;;;;;;;;;12.00;12.00;;;;;14.67;61.33;101519.75;2100418;28;46717;-62
2022/11/10 00:05:52;;;;;;;;;11.00;10.00;;;;;14.67;60.96;101525.09;2099138;28;46294;-62
2022/11/10 00:06:52;;;;;;;;;13.75;13.75;;;;;14.66;61.33;101526.00;2096974;28;46733;-63
2022/11/10 00:07:52;;;;;;;;;14.75;14.25;;;;;14.64;61.58;101520.72;2097386;27;46548;-61
2022/11/10 00:08:52;;;;;;;;;16.50;15.00;;;;;14.64;61.05;101526.06;2095896;28;46321;-60
2022/11/10 00:09:53;;;;;;;;;13.33;13.33;;;;;14.63;61.44;101524.31;2095744;28;46761;-61
2022/11/10 00:10:56;;;;;;;;;13.75;12.00;;;;;14.63;61.28;101531.44;2096729;28;46799;-62
2022/11/10 00:11:57;;;;;;;;;12.00;11.75;;;;;14.62;61.06;101533.22;2096246;28;46397;-62
2022/11/10 00:13:01;;;;;;;;;16.00;12.00;;;;;14.62;61.08;101527.00;2098974;28;45695;-62
2022/11/10 00:18:01;;;;;;;;;11.00;11.00;;;;;14.64;61.40;101527.84;2095251;28;46796;-62
2022/11/10 00:19:01;;;;;;;;;14.50;13.25;;;;;14.63;61.26;101537.66;2095597;28;46952;-63
2022/11/10 00:20:02;;;;;;;;;19.75;18.50;;;;;14.64;61.90;101546.56;2097407;28;44928;-60
2022/11/10 00:21:09;;;;;;;;;17.25;14.75;;;;;14.63;61.19;101534.13;2097279;28;46732;-62
2022/11/10 00:22:09;;;;;;;;;16.40;16.40;;;;;14.61;61.71;101544.84;2098848;28;45258;-61
2022/11/10 00:23:09;;;;;;;;;15.00;14.00;;;;;14.60;61.39;101547.53;2100958;28;46767;-61
2022/11/10 00:24:10;;;;;;;;;14.00;14.00;;;;;14.58;61.69;101542.22;2097746;28;47121;-61
2022/11/10 00:25:11;;;;;;;;;13.33;11.67;;;;;14.58;61.51;101550.22;2097181;28;46157;-61
2022/11/10 00:26:18;;;;;;;;;10.80;10.60;;;;;14.57;61.78;101545.81;2097841;28;45706;-61
2022/11/10 00:27:18;;;;;;;;;9.80;9.40;;;;;14.58;61.73;101549.34;2098375;27;47224;-63
2022/11/10 00:28:18;;;;;;;;;9.00;9.00;;;;;14.57;61.82;101551.16;2104240;27;46441;-61
2022/11/10 00:29:19;;;;;;;;;16.25;16.00;;;;;14.58;61.45;101557.38;2101251;27;46166;-60
2022/11/10 00:30:20;;;;;;;;;13.00;12.67;;;;;14.57;61.87;101552.94;2100947;27;45909;-61
2022/11/10 00:31:20;;;;;;;;;14.00;13.00;;;;;14.57;62.02;101548.47;2103086;28;46964;-64
2022/11/10 00:32:20;;;;;;;;;11.67;10.67;;;;;14.56;61.29;101552.06;2098207;27;46565;-61
2022/11/10 00:33:20;;;;;;;;;11.00;10.33;;;;;14.56;61.35;101552.06;2103167;28;47273;-63
2022/11/10 00:34:21;;;;;;;;;14.00;12.67;;;;;14.56;61.45;101545.84;2093754;28;46481;-62
2022/11/10 00:35:21;;;;;;;;;12.00;11.00;;;;;14.55;61.55;101547.66;2094635;28;46153;-60
2022/11/10 00:36:22;;;;;;;;;12.67;11.67;;;;;14.55;61.84;101561.00;2097409;28;46422;-62
2022/11/10 00:37:22;;;;;;;;;12.33;12.33;;;;;14.54;61.88;101558.38;2096639;28;46629;-60
2022/11/10 00:38:23;;;;;;;;;12.67;11.00;;;;;14.53;61.49;101556.63;2095851;28;46780;-62
2022/11/10 00:39:23;;;;;;;;;11.00;11.00;;;;;14.53;61.57;101564.63;2096521;28;45359;-62
2022/11/10 00:40:23;;;;;;;;;13.33;12.33;;;;;14.52;61.97;101560.22;2096872;28;46390;-61
2022/11/10 00:41:23;;;;;;;;;14.00;14.00;;;;;14.52;61.99;101560.22;2097685;28;45805;-62
2022/11/10 00:42:24;;;;;;;;;13.25;13.25;;;;;14.51;61.77;101563.78;2096727;28;46686;-60
2022/11/10 00:43:25;;;;;;;;;15.67;14.33;;;;;14.51;61.81;101562.00;2097208;28;46203;-61
2022/11/10 00:44:25;;;;;;;;;14.67;14.00;;;;;14.51;62.26;101554.00;2097349;28;46814;-61
2022/11/10 00:45:25;;;;;;;;;14.00;12.00;;;;;14.52;61.89;101560.22;2095978;28;46370;-62
2022/11/10 00:46:26;;;;;;;;;12.50;12.50;;;;;14.52;61.75;101554.88;2096427;28;46484;-62
2022/11/10 00:47:26;;;;;;;;;9.67;9.67;;;;;14.53;61.71;101556.63;2096666;28;47695;-64
2022/11/10 00:48:26;;;;;;;;;12.33;12.33;;;;;14.52;61.68;101563.75;2097327;28;45134;-62
2022/11/10 00:49:27;;;;;;;;;13.00;13.00;;;;;14.53;61.75;101564.63;2097468;28;45605;-62
2022/11/10 00:50:27;;;;;;;;;12.00;10.00;;;;;14.52;62.00;101569.09;2098082;28;46372;-60
2022/11/10 00:51:29;;;;;;;;;12.50;11.75;;;;;14.52;61.84;101568.22;2098523;28;46138;-62
2022/11/10 00:52:29;;;;;;;;;12.75;10.50;;;;;14.51;62.17;101564.69;2097058;28;46431;-61
2022/11/10 00:53:29;;;;;;;;;14.50;13.50;;;;;14.52;61.91;101560.22;2098889;28;46249;-61
2022/11/10 00:54:30;;;;;;;;;10.33;9.33;;;;;14.52;62.00;101560.22;2097238;28;45514;-61
2022/11/10 00:55:30;;;;;;;;;14.00;11.75;;;;;14.50;61.75;101557.59;2098866;28;46247;-61
2022/11/10 00:56:30;;;;;;;;;12.50;11.00;;;;;14.50;61.79;101564.72;2098049;28;46894;-61
2022/11/10 00:57:30;;;;;;;;;14.00;11.75;;;;;14.50;62.01;101568.25;2096610;28;46695;-61
2022/11/10 00:58:31;;;;;;;;;14.33;13.33;;;;;14.48;61.84;101567.41;2100127;28;46705;-61
2022/11/10 00:59:31;;;;;;;;;11.67;11.67;;;;;14.47;61.75;101578.13;2096874;28;46891;-60
2022/11/10 01:00:32;;;;;;;;;12.00;11.00;;;;;14.46;61.75;101568.34;2096687;28;46273;-63
2022/11/10 01:01:32;;;;;;;;;11.67;11.67;;;;;14.45;61.96;101579.94;2100390;28;46976;-62
2022/11/10 01:02:32;;;;;;;;;14.00;12.67;;;;;14.44;62.16;101584.41;2097000;28;46324;-63
2022/11/10 01:03:33;;;;;;;;;12.00;12.00;;;;;14.43;62.14;101583.50;2101688;28;46219;-63
2022/11/10 01:04:33;;;;;;;;;14.67;13.67;;;;;14.41;62.01;101582.66;2100374;28;45959;-62
2022/11/10 01:05:37;;;;;;;;;11.33;11.33;;;;;14.41;62.05;101580.00;2098605;27;46732;-62
2022/11/10 01:06:37;;;;;;;;;14.00;13.00;;;;;14.41;61.90;101590.69;2101806;28;46260;-61
2022/11/10 01:07:37;;;;;;;;;10.00;10.00;;;;;14.41;62.21;101581.78;2098534;28;46806;-61
2022/11/10 01:08:39;;;;;;;;;11.00;11.00;;;;;14.42;62.42;101588.88;2101407;27;46138;-62
2022/11/10 01:09:39;;;;;;;;;12.00;11.25;;;;;14.41;61.88;101577.34;2097779;28;45683;-62
2022/11/10 01:10:39;;;;;;;;;13.00;11.33;;;;;14.42;62.17;101586.22;2096694;28;46137;-60
2022/11/10 01:11:40;;;;;;;;;13.00;11.33;;;;;14.42;62.33;101591.56;2103168;27;46630;-61
2022/11/10 01:12:40;;;;;;;;;14.00;14.00;;;;;14.41;62.13;101585.34;2100493;28;46580;-61
2022/11/10 01:13:41;;;;;;;;;14.00;13.00;;;;;14.41;62.07;101588.00;2094009;27;45491;-61
2022/11/10 01:14:41;;;;;;;;;12.60;11.20;;;;;14.41;62.02;101589.81;2103184;28;46179;-60
2022/11/10 01:15:42;;;;;;;;;14.00;12.00;;;;;14.41;61.95;101582.66;2095931;28;46306;-60
2022/11/10 01:16:42;;;;;;;;;10.33;10.33;;;;;14.40;62.00;101582.72;2099219;28;45553;-60
2022/11/10 01:17:42;;;;;;;;;13.50;11.75;;;;;14.40;62.13;101586.25;2101039;28;46451;-61
2022/11/10 01:18:43;;;;;;;;;12.00;11.50;;;;;14.41;62.24;101579.13;2098696;27;47025;-62
2022/11/10 01:19:43;;;;;;;;;15.00;13.75;;;;;14.40;62.01;101585.38;2097278;28;47469;-62
2022/11/10 01:20:48;;;;;;;;;13.00;11.25;;;;;14.40;62.11;101585.38;2096878;28;46384;-60
2022/11/10 01:21:50;;;;;;;;;14.00;13.00;;;;;14.39;62.34;101592.50;2096681;28;46299;-61
2022/11/10 01:22:50;;;;;;;;;13.00;12.80;;;;;14.39;62.38;101588.97;2098370;28;46714;-62
2022/11/10 01:23:51;;;;;;;;;13.00;13.00;;;;;14.37;62.13;101594.34;2098415;28;45642;-61
2022/11/10 01:24:51;;;;;;;;;12.00;12.00;;;;;14.36;62.10;101595.25;2099426;28;46055;-62
2022/11/10 01:25:57;;;;;;;;;15.50;13.00;;;;;14.35;62.38;101595.28;2098187;28;46866;-62
2022/11/10 01:26:57;;;;;;;;;12.25;12.00;;;;;14.34;62.52;101594.41;2097274;28;46331;-63
2022/11/10 01:27:57;;;;;;;;;13.00;13.00;;;;;14.34;62.43;101593.50;2098547;27;46344;-62
2022/11/10 01:28:58;;;;;;;;;11.25;11.25;;;;;14.32;62.29;101590.88;2097299;28;46530;-61
2022/11/10 01:29:58;;;;;;;;;10.50;10.50;;;;;14.32;62.65;101598.03;2097072;28;46838;-61
2022/11/10 01:31:09;;;;;;;;;13.50;13.50;;;;;14.32;62.63;101595.34;2097067;28;46357;-62
2022/11/10 01:32:09;;;;;;;;;12.00;11.80;;;;;14.32;62.58;101606.03;2096988;28;46580;-62
2022/11/10 01:33:10;;;;;;;;;13.00;12.50;;;;;14.31;62.33;101598.94;2092033;28;46303;-63
2022/11/10 01:34:10;;;;;;;;;13.75;13.75;;;;;14.28;62.58;101599.91;2092091;28;47031;-62
2022/11/10 01:35:10;;;;;;;;;16.00;15.00;;;;;14.28;62.38;101599.91;2092126;28;46395;-62
2022/11/10 01:36:11;;;;;;;;;13.75;12.75;;;;;14.27;62.64;101595.47;2093286;28;45432;-61
2022/11/10 01:37:11;;;;;;;;;13.00;13.00;;;;;14.26;62.51;101600.84;2095243;28;46777;-60
2022/11/10 01:38:12;;;;;;;;;13.25;13.25;;;;;14.25;62.70;101599.09;2097416;28;45607;-62
2022/11/10 01:39:12;;;;;;;;;14.00;14.00;;;;;14.25;62.81;101602.63;2096545;28;46340;-62
2022/11/10 01:40:13;;;;;;;;;14.33;14.33;;;;;14.24;62.40;101600.00;2096654;28;45503;-61
2022/11/10 01:41:14;;;;;;;;;17.00;14.50;;;;;14.23;62.88;101607.16;2096845;28;47007;-59
2022/11/10 01:42:14;;;;;;;;;13.50;13.25;;;;;14.23;62.48;101608.91;2096397;28;46827;-60
2022/11/10 01:43:15;;;;;;;;;12.00;12.00;;;;;14.22;62.64;101604.47;2096762;28;46545;-62
2022/11/10 01:44:22;;;;;;;;;12.67;11.67;;;;;14.22;62.95;101609.81;2096729;28;46426;-62
2022/11/10 01:45:22;;;;;;;;;16.50;14.75;;;;;14.21;62.73;101613.41;2096499;28;46281;-60
2022/11/10 01:46:22;;;;;;;;;13.67;13.33;;;;;14.20;62.56;101611.66;2096575;28;46760;-62
2022/11/10 01:47:23;;;;;;;;;16.00;13.67;;;;;14.20;62.66;101617.88;2096680;28;46791;-62
2022/11/10 01:48:26;;;;;;;;;11.25;11.25;;;;;14.20;62.59;101617.88;2096727;28;46297;-61
2022/11/10 01:49:27;;;;;;;;;15.25;15.00;;;;;14.21;62.58;101616.94;2096799;28;46887;-60
2022/11/10 01:50:32;;;;;;;;;14.25;14.25;;;;;14.20;62.88;101614.31;2094839;27;46526;-61
2022/11/10 01:51:40;;;;;;;;;11.00;11.00;;;;;14.19;62.77;101609.91;2096496;28;46853;-60
2022/11/10 01:52:46;;;;;;;;;12.80;12.00;;;;;14.19;62.89;101615.22;2096702;28;46493;-62
2022/11/10 01:53:51;;;;;;;;;10.50;9.50;;;;;14.19;62.93;101620.56;2093539;28;46655;-60
2022/11/10 01:54:52;;;;;;;;;12.50;11.00;;;;;14.19;63.21;101628.56;2096691;28;46807;-61
2022/11/10 01:55:54;;;;;;;;;16.50;14.75;;;;;14.19;62.99;101628.56;2096367;28;46732;-61
2022/11/10 01:56:59;;;;;;;;;13.00;13.00;;;;;14.19;62.78;101628.56;2096530;28;46375;-60
2022/11/10 01:57:59;;;;;;;;;11.75;11.00;;;;;14.18;63.01;101626.81;2096540;28;46866;-61
2022/11/10 01:59:03;;;;;;;;;11.75;11.75;;;;;14.18;63.39;101633.03;2096643;28;46850;-61
2022/11/10 02:00:04;;;;;;;;;14.80;13.40;;;;;14.18;62.84;101624.16;2095978;28;46941;-62
2022/11/10 02:01:06;;;;;;;;;13.00;11.33;;;;;14.18;63.10;101630.38;2096445;28;46190;-61
2022/11/10 02:02:23;;;;;;;;;14.00;12.50;;;;;14.17;62.71;101633.97;2095516;28;46139;-61
2022/11/10 02:03:33;;;;;;;;;16.20;13.60;;;;;14.16;63.08;101628.66;2089553;28;46858;-61
2022/11/10 02:04:33;;;;;;;;;11.00;10.25;;;;;14.16;63.06;101634.88;2096839;28;46796;-60
2022/11/10 02:05:35;;;;;;;;;11.25;10.25;;;;;14.16;63.17;101639.34;2096557;28;46197;-62
2022/11/10 02:06:39;;;;;;;;;13.50;13.50;;;;;14.16;63.44;101632.19;2103205;28;46940;-62
2022/11/10 02:07:41;;;;;;;;;14.50;11.00;;;;;14.16;63.15;101634.88;2096819;28;45255;-62
2022/11/10 02:08:43;;;;;;;;;8.00;6.00;;;;;14.15;63.32;101643.78;2096471;28;45918;-61
2022/11/10 02:09:43;;;;;;;;;14.20;14.00;;;;;14.15;62.97;101641.13;2096494;28;46643;-59
2022/11/10 02:10:44;;;;;;;;;13.00;13.00;;;;;14.13;62.97;101638.50;2095271;28;46352;-60
2022/11/10 02:11:46;;;;;;;;;13.67;13.00;;;;;14.12;63.15;101642.06;2095015;28;46845;-62
2022/11/10 02:12:48;;;;;;;;;9.75;9.75;;;;;14.12;63.25;101638.53;2095983;28;46390;-60
2022/11/10 02:13:49;;;;;;;;;14.00;14.00;;;;;14.11;62.87;101634.09;2096006;28;46769;-59
2022/11/10 02:14:49;;;;;;;;;13.20;13.20;;;;;14.10;63.07;101643.00;2090877;28;46391;-60
2022/11/10 02:15:50;;;;;;;;;16.25;13.00;;;;;14.10;63.05;101641.25;2096911;28;46930;-61
2022/11/10 02:16:50;;;;;;;;;15.00;13.75;;;;;14.10;63.43;101641.25;2096842;28;46125;-61
2022/11/10 02:17:50;;;;;;;;;15.00;13.00;;;;;14.10;63.23;101637.66;2095758;28;46909;-61
2022/11/10 02:18:51;;;;;;;;;12.00;12.00;;;;;14.09;63.21;101643.91;2087137;28;45432;-61
2022/11/10 02:19:51;;;;;;;;;15.67;14.67;;;;;14.08;63.16;101645.69;2095290;28;46287;-60
2022/11/10 02:20:52;;;;;;;;;12.75;12.75;;;;;14.08;63.27;101645.69;2096709;28;46525;-60
2022/11/10 02:21:52;;;;;;;;;11.00;11.00;;;;;14.08;63.03;101643.03;2100005;28;46788;-61
2022/11/10 02:22:52;;;;;;;;;14.00;12.75;;;;;14.06;63.15;101638.66;2096968;28;46552;-61
2022/11/10 02:23:53;;;;;;;;;14.25;14.25;;;;;14.06;63.10;101638.66;2095613;28;46867;-61
2022/11/10 02:24:53;;;;;;;;;17.75;14.25;;;;;14.05;63.11;101640.44;2097960;28;46358;-62
2022/11/10 02:25:54;;;;;;;;;13.50;13.50;;;;;14.05;63.49;101634.22;2096211;28;46982;-60
2022/11/10 02:26:55;;;;;;;;;15.25;15.25;;;;;14.05;62.99;101636.88;2096299;28;46901;-61
2022/11/10 02:27:55;;;;;;;;;10.00;9.40;;;;;14.05;63.14;101636.88;2100029;28;46451;-61
2022/11/10 02:28:56;;;;;;;;;14.25;13.75;;;;;14.05;63.25;101642.22;2100847;27;46429;-63
2022/11/10 02:29:56;;;;;;;;;13.00;12.25;;;;;14.05;63.46;101643.09;2095813;28;47281;-62
2022/11/10 02:30:57;;;;;;;;;12.50;11.50;;;;;14.04;63.28;101644.03;2095892;28;46308;-63
2022/11/10 02:31:57;;;;;;;;;15.00;14.00;;;;;14.05;63.48;101644.91;2095957;28;46801;-63
2022/11/10 02:32:57;;;;;;;;;14.75;14.75;;;;;14.03;63.27;101639.59;2096570;28;45234;-62
2022/11/10 02:33:57;;;;;;;;;11.75;11.00;;;;;14.02;63.37;101637.84;2092600;28;45242;-63
2022/11/10 02:34:58;;;;;;;;;14.00;12.75;;;;;14.02;63.55;101635.16;2095658;28;46978;-61
2022/11/10 02:35:58;;;;;;;;;15.25;15.00;;;;;14.00;63.36;101634.34;2096416;28;46190;-62
2022/11/10 02:36:58;;;;;;;;;14.50;14.25;;;;;14.00;63.21;101641.47;2095773;28;46448;-61
2022/11/10 02:37:59;;;;;;;;;16.25;15.25;;;;;14.00;63.26;101630.78;2096435;28;46661;-62
2022/11/10 02:38:59;;;;;;;;;15.00;12.00;;;;;14.00;63.25;101636.13;2096398;28;46573;-62
2022/11/10 02:39:59;;;;;;;;;14.00;13.33;;;;;13.99;63.49;101637.91;2096151;28;46639;-61
2022/11/10 02:41:00;;;;;;;;;17.00;16.00;;;;;13.99;63.56;101637.03;2095695;28;46241;-61
2022/11/10 02:42:00;;;;;;;;;14.75;14.00;;;;;13.98;63.50;101638.81;2096855;28;46556;-63
2022/11/10 02:43:03;;;;;;;;;12.00;12.00;;;;;13.99;63.63;101637.03;2096477;28;45692;-62
2022/11/10 02:44:05;;;;;;;;;9.60;9.20;;;;;13.97;63.28;101637.03;2097249;28;46601;-62
2022/11/10 02:45:07;;;;;;;;;11.50;9.75;;;;;13.96;63.50;101639.75;2095418;28;46736;-61
2022/11/10 02:46:07;;;;;;;;;16.80;15.00;;;;;13.96;63.63;101639.75;2096501;28;46147;-62
2022/11/10 02:47:08;;;;;;;;;10.00;10.00;;;;;13.94;63.60;101642.44;2096232;28;46639;-60
2022/11/10 02:48:09;;;;;;;;;13.25;13.25;;;;;13.94;63.36;101644.25;2097207;28;45702;-64
2022/11/10 02:49:10;;;;;;;;;16.80;12.40;;;;;13.93;63.80;101638.03;2085025;28;46568;-63
2022/11/10 02:50:10;;;;;;;;;13.00;12.25;;;;;13.92;63.65;101633.59;2087743;28;46279;-65
2022/11/10 02:51:10;;;;;;;;;11.50;11.00;;;;;13.91;63.67;101637.19;2096259;28;46420;-61
2022/11/10 02:52:11;;;;;;;;;12.67;12.67;;;;;13.91;63.61;101633.63;2096792;28;46121;-59
2022/11/10 02:53:11;;;;;;;;;14.00;10.33;;;;;13.92;63.48;101643.41;2097866;28;46789;-61
2022/11/10 02:54:11;;;;;;;;;15.75;13.75;;;;;13.91;63.58;101638.97;2096189;28;47534;-62
2022/11/10 02:55:12;;;;;;;;;10.33;10.33;;;;;13.90;63.99;101645.22;2099891;28;45481;-61
2022/11/10 02:56:12;;;;;;;;;15.25;14.00;;;;;13.89;63.65;101641.69;2100572;28;46954;-60
2022/11/10 02:57:12;;;;;;;;;12.75;12.50;;;;;13.89;63.65;101647.00;2098092;27;46237;-62
2022/11/10 02:58:13;;;;;;;;;12.75;12.00;;;;;13.89;63.84;101651.47;2096748;28;46299;-62
2022/11/10 02:59:13;;;;;;;;;13.67;13.33;;;;;13.87;63.83;101648.84;2096469;28;45826;-62
2022/11/10 03:00:13;;;;;;;;;13.67;12.00;;;;;13.87;63.77;101651.50;2096332;28;46776;-62
2022/11/10 03:01:14;;;;;;;;;11.67;10.00;;;;;13.86;63.65;101651.53;2099578;28;46591;-61
2022/11/10 03:02:14;;;;;;;;;14.50;14.50;;;;;13.85;64.18;101648.00;2096677;27;47038;-61
2022/11/10 03:03:14;;;;;;;;;13.67;13.67;;;;;13.86;63.94;101649.75;2101661;28;46715;-60
2022/11/10 03:04:15;;;;;;;;;12.25;12.25;;;;;13.87;63.83;101647.97;2096825;28;45615;-63
2022/11/10 03:05:15;;;;;;;;;12.00;12.00;;;;;13.86;64.15;101647.09;2100322;27;46351;-61
2022/11/10 03:06:15;;;;;;;;;9.00;9.00;;;;;13.86;63.92;101648.88;2097217;28;46605;-61
2022/11/10 03:07:16;;;;;;;;;12.00;12.00;;;;;13.86;64.03;101649.75;2095735;28;46924;-62
2022/11/10 03:08:16;;;;;;;;;11.00;11.00;;;;;13.86;63.84;101652.41;2101598;28;45883;-60
2022/11/10 03:09:17;;;;;;;;;9.00;8.00;;;;;13.86;64.18;101648.88;2097813;28;46484;-61
2022/11/10 03:10:17;;;;;;;;;10.33;10.33;;;;;13.84;64.10;101652.44;2099382;27;46657;-62
2022/11/10 03:11:17;;;;;;;;;10.00;10.00;;;;;13.84;64.01;101646.22;2100832;28;47438;-60
2022/11/10 03:12:18;;;;;;;;;11.67;11.67;;;;;13.84;63.80;101649.75;2086821;28;46503;-62
2022/11/10 03:13:18;;;;;;;;;11.67;10.00;;;;;13.82;63.99;101643.56;2089682;28;45426;-61
2022/11/10 03:14:18;;;;;;;;;10.00;10.00;;;;;13.81;64.08;101641.81;2098962;28;46534;-60
2022/11/10 03:15:19;;;;;;;;;12.67;10.33;;;;;13.81;64.22;101652.50;2085636;28;47435;-65
2022/11/10 03:16:19;;;;;;;;;10.33;10.33;;;;;13.81;64.00;101644.50;2090132;28;46313;-61
2022/11/10 03:17:19;;;;;;;;;9.33;9.33;;;;;13.79;64.20;101643.66;2096576;28;45826;-61
2022/11/10 03:18:20;;;;;;;;;13.67;11.00;;;;;13.79;64.24;101651.66;2092282;28;46264;-61
2022/11/10 03:19:20;;;;;;;;;13.33;11.00;;;;;13.78;64.43;101649.03;2091283;28;46099;-61
2022/11/10 03:20:20;;;;;;;;;10.33;10.00;;;;;13.78;64.24;101649.03;2098485;28;46428;-59
2022/11/10 03:21:21;;;;;;;;;12.67;10.67;;;;;13.77;64.23;101649.94;2101695;28;46862;-60
2022/11/10 03:22:21;;;;;;;;;15.75;14.50;;;;;13.76;64.17;101646.38;2095856;28;47476;-60
2022/11/10 03:23:21;;;;;;;;;11.75;11.75;;;;;13.75;64.13;101647.28;2100184;28;46559;-64
2022/11/10 03:24:22;;;;;;;;;14.50;14.50;;;;;13.74;64.38;101644.66;2099248;28;46520;-61
2022/11/10 03:25:22;;;;;;;;;14.67;14.00;;;;;13.71;64.23;101640.25;2111760;27;45424;-60
2022/11/10 03:26:22;;;;;;;;;12.50;12.50;;;;;13.70;64.34;101643.81;2096860;27;46889;-61
2022/11/10 03:27:22;;;;;;;;;12.00;12.00;;;;;13.71;64.46;101647.38;2095123;28;46289;-60
2022/11/10 03:28:23;;;;;;;;;11.00;11.00;;;;;13.71;64.25;101652.69;2096174;28;46331;-61
2022/11/10 03:29:23;;;;;;;;;15.50;14.75;;;;;13.68;64.07;101656.31;2102657;28;45828;-60
2022/11/10 03:30:23;;;;;;;;;12.00;12.00;;;;;13.68;64.15;101658.09;2101369;28;45627;-62
2022/11/10 03:31:24;;;;;;;;;12.67;12.67;;;;;13.68;64.11;101661.66;2097062;27;45200;-61
2022/11/10 03:32:24;;;;;;;;;9.67;9.33;;;;;13.67;64.37;101656.34;2098630;28;46122;-61
2022/11/10 03:33:25;;;;;;;;;12.75;12.00;;;;;13.66;64.44;101660.81;2095844;28;46902;-63
2022/11/10 03:34:25;;;;;;;;;13.25;11.75;;;;;13.66;64.17;101657.25;2093083;28;46393;-62
2022/11/10 03:35:26;;;;;;;;;13.67;12.67;;;;;13.65;64.38;101650.16;2094514;28;46185;-61
2022/11/10 03:36:26;;;;;;;;;12.75;12.75;;;;;13.64;64.40;101653.75;2095903;28;46296;-61
2022/11/10 03:37:26;;;;;;;;;14.00;12.00;;;;;13.63;64.58;101650.19;2095395;28;46142;-63
2022/11/10 03:38:27;;;;;;;;;12.00;12.00;;;;;13.63;64.48;101649.31;2093703;28;47333;-60
2022/11/10 03:39:27;;;;;;;;;13.33;10.33;;;;;13.63;64.61;101654.66;2095178;28;45579;-61
2022/11/10 03:40:27;;;;;;;;;12.67;12.33;;;;;13.62;64.34;101663.56;2095743;28;46375;-62
2022/11/10 03:41:28;;;;;;;;;13.00;13.00;;;;;13.62;64.36;101663.56;2096304;28;46314;-61
2022/11/10 03:42:28;;;;;;;;;11.00;11.00;;;;;13.61;64.51;101669.81;2095518;28;46303;-61
2022/11/10 03:43:28;;;;;;;;;13.67;12.33;;;;;13.60;64.62;101671.59;2095982;28;46870;-61
2022/11/10 03:44:29;;;;;;;;;13.67;13.33;;;;;13.61;64.60;101676.03;2096415;28;46359;-60
2022/11/10 03:45:29;;;;;;;;;11.67;11.67;;;;;13.61;64.42;101672.47;2096682;28;46400;-61
2022/11/10 03:46:29;;;;;;;;;14.67;12.00;;;;;13.60;64.60;101668.06;2096353;28;46696;-61
2022/11/10 03:47:30;;;;;;;;;11.00;10.00;;;;;13.59;64.79;101661.81;2095453;28;46463;-62
2022/11/10 03:48:30;;;;;;;;;11.33;11.00;;;;;13.59;64.40;101666.28;2096433;28;46523;-62
2022/11/10 03:49:30;;;;;;;;;12.00;11.67;;;;;13.57;64.43;101671.63;2094214;28;45988;-60
2022/11/10 03:50:31;;;;;;;;;12.00;12.00;;;;;13.56;64.65;101667.22;2097136;28;46503;-61
2022/11/10 03:51:31;;;;;;;;;12.75;12.75;;;;;13.55;64.67;101665.47;2097864;28;46801;-61
2022/11/10 03:52:32;;;;;;;;;9.67;9.33;;;;;13.55;64.75;101662.78;2095656;28;46334;-61
2022/11/10 03:53:32;;;;;;;;;10.25;10.25;;;;;13.55;64.63;101660.13;2098235;28;45798;-61
2022/11/10 03:54:32;;;;;;;;;11.50;11.50;;;;;13.54;64.93;101664.59;2096235;28;46371;-62
2022/11/10 03:55:33;;;;;;;;;13.75;12.50;;;;;13.54;64.75;101669.03;2098403;27;46473;-63
2022/11/10 03:56:33;;;;;;;;;12.75;12.75;;;;;13.52;64.70;101665.53;2098432;28;47017;-62
2022/11/10 03:57:34;;;;;;;;;11.00;9.75;;;;;13.51;64.83;101666.44;2095550;28;46197;-62
2022/11/10 03:58:34;;;;;;;;;13.33;11.00;;;;;13.51;64.78;101675.31;2099797;28;46846;-61
2022/11/10 03:59:35;;;;;;;;;11.33;10.67;;;;;13.50;65.03;101673.56;2097368;28;46747;-61
2022/11/10 04:00:35;;;;;;;;;12.50;11.50;;;;;13.51;64.83;101677.09;2097993;27;46303;-62
2022/11/10 04:01:35;;;;;;;;;9.00;8.00;;;;;13.51;64.85;101677.09;2099885;28;46330;-62
2022/11/10 04:02:37;;;;;;;;;14.50;11.75;;;;;13.50;64.90;101681.56;2096616;28;46141;-63
2022/11/10 04:03:37;;;;;;;;;15.00;13.80;;;;;13.49;65.01;101681.59;2100574;27;46655;-61
2022/11/10 04:09:52;;;;;;;;;15.20;13.20;;;;;13.47;64.88;101684.28;2101607;28;45582;-61
2022/11/10 04:10:53;;;;;;;;;12.00;11.67;;;;;13.47;64.93;101683.41;2096995;27;47019;-62
2022/11/10 04:15:50;;;;;;;;;11.00;10.00;;;;;13.43;64.97;101682.56;2096602;28;46392;-61
2022/11/10 04:16:51;;;;;;;;;8.25;7.50;;;;;13.43;64.83;101676.34;2096509;28;46959;-63
2022/11/10 04:17:51;;;;;;;;;10.33;10.33;;;;;13.42;65.15;101683.47;2096922;28;46335;-62
2022/11/10 04:18:51;;;;;;;;;10.00;9.00;;;;;13.41;64.71;101680.84;2096863;28;46602;-62
2022/11/10 04:19:52;;;;;;;;;11.00;11.00;;;;;13.42;64.90;101685.25;2086192;28;46979;-61
2022/11/10 04:20:55;;;;;;;;;12.33;11.00;;;;;13.42;65.00;101688.81;2085126;28;46851;-61
2022/11/10 04:21:55;;;;;;;;;10.00;10.00;;;;;13.42;65.18;101690.59;2094500;28;46816;-60
2022/11/10 04:24:14;;;;;;;;;10.00;10.00;;;;;13.39;65.24;101686.19;2097684;28;46253;-60
2022/11/10 04:25:15;;;;;;;;;11.33;10.67;;;;;13.39;65.12;101683.53;2096453;28;46481;-62
2022/11/10 04:26:31;;;;;;;;;12.33;12.33;;;;;13.39;65.39;101696.88;2097931;28;46623;-61
2022/11/10 04:27:32;;;;;;;;;12.25;10.25;;;;;13.39;65.18;101699.53;2095060;28;46625;-62
2022/11/10 04:28:32;;;;;;;;;11.00;10.33;;;;;13.40;65.08;101700.41;2096153;28;45839;-62
2022/11/10 04:29:33;;;;;;;;;13.50;11.50;;;;;13.42;65.06;101701.25;2098651;28;46073;-60
2022/11/10 04:30:33;;;;;;;;;12.33;10.00;;;;;13.42;65.43;101694.13;2099190;28;46732;-62
2022/11/10 04:31:36;;;;;;;;;10.33;8.33;;;;;13.42;65.00;101688.81;2095768;28;46831;-60
2022/11/10 04:32:36;;;;;;;;;8.00;8.00;;;;;13.42;64.93;101698.59;2094891;28;46521;-60
2022/11/10 04:33:38;;;;;;;;;10.33;10.33;;;;;13.42;65.01;101698.59;2095993;28;45284;-60
2022/11/10 04:34:38;;;;;;;;;10.75;10.75;;;;;13.40;65.08;101697.75;2094393;28;45597;-62
2022/11/10 04:35:38;;;;;;;;;14.67;12.00;;;;;13.40;64.93;101697.75;2093244;28;46343;-60
2022/11/10 04:36:41;;;;;;;;;10.50;10.00;;;;;13.39;65.13;101698.66;2094223;28;46410;-60
2022/11/10 04:37:42;;;;;;;;;10.75;10.25;;;;;13.38;65.11;101699.56;2095854;28;48032;-62
2022/11/10 04:38:42;;;;;;;;;10.00;10.00;;;;;13.39;65.26;101706.66;2095601;28;46565;-59
2022/11/10 04:39:43;;;;;;;;;8.33;7.00;;;;;13.40;65.20;101700.41;2095087;28;46464;-62
2022/11/10 04:40:43;;;;;;;;;10.33;10.33;;;;;13.40;65.18;101703.06;2095583;28;46639;-59
2022/11/10 04:41:43;;;;;;;;;8.00;8.00;;;;;13.40;65.11;101701.28;2095693;28;46655;-61
2022/11/10 04:42:44;;;;;;;;;10.25;9.75;;;;;13.41;65.14;101699.50;2095583;28;46269;-61
2022/11/10 04:43:44;;;;;;;;;12.50;10.25;;;;;13.40;65.26;101700.41;2095609;28;46133;-62
2022/11/10 04:44:44;;;;;;;;;9.00;8.00;;;;;13.41;64.99;101708.38;2091073;28;45963;-61
2022/11/10 04:45:45;;;;;;;;;9.33;8.67;;;;;13.40;65.06;101711.97;2095707;28;46390;-62
2022/11/10 04:46:45;;;;;;;;;10.00;10.00;;;;;13.40;65.04;101719.06;2095359;28;46564;-61
2022/11/10 04:47:45;;;;;;;;;11.00;8.00;;;;;13.40;65.16;101713.75;2095776;28;45512;-60
2022/11/10 04:48:46;;;;;;;;;9.00;9.00;;;;;13.39;65.08;101709.31;2099125;28;46495;-60
2022/11/10 04:49:46;;;;;;;;;9.33;9.00;;;;;13.38;65.27;101719.09;2096773;27;45900;-62
2022/11/10 04:50:46;;;;;;;;;8.67;8.67;;;;;13.38;65.14;101720.91;2095497;28;46614;-60
2022/11/10 04:51:47;;;;;;;;;10.00;10.00;;;;;13.37;65.11;101717.34;2095427;28;46470;-60
2022/11/10 04:52:47;;;;;;;;;9.67;9.00;;;;;13.37;65.01;101721.81;2095980;28;45434;-61